Time;durP1;ratioP1;P1;durP2;ratioP2;P2;SDS_P1;SDS_P2;PMS_P1;PMS_P2;Temp;Humidity;BMP_temperature;BMP_pressure;BME280_temperature;BME280_humidity;BME280_pressure;Samples;Min_cycle;Max_cycle;Signal;HPM_P1;HPM_P2
2022/04/28 00:01:57;;;;;;;3.55;1.77;;;8.70;99.90;;;;;;10359610;28;20412;-90
2022/04/28 00:06:59;;;;;;;4.80;1.95;;;8.60;99.90;;;;;;10372354;28;20399;-90
2022/04/28 00:12:01;;;;;;;3.55;2.15;;;8.60;99.90;;;;;;10377013;28;20707;-90
2022/04/28 00:17:04;;;;;;;3.08;1.85;;;8.50;99.90;;;;;;10384333;28;20049;-90
2022/04/28 00:22:06;;;;;;;6.43;1.98;;;8.50;99.90;;;;;;10397119;28;20050;-90
2022/04/28 00:27:08;;;;;;;3.75;1.75;;;8.40;99.90;;;;;;10405794;28;20064;-90
2022/04/28 00:32:10;;;;;;;3.10;1.73;;;8.30;99.90;;;;;;10391524;28;20053;-90
2022/04/28 00:37:13;;;;;;;3.63;1.38;;;8.30;99.90;;;;;;10413962;28;21264;-91
2022/04/28 00:42:16;;;;;;;4.75;1.58;;;8.30;99.90;;;;;;10397121;28;20060;-90
2022/04/28 00:47:18;;;;;;;2.78;1.40;;;8.30;99.90;;;;;;10398429;28;20573;-90
2022/04/28 00:52:21;;;;;;;3.83;1.98;;;8.30;99.90;;;;;;10414304;28;20049;-90
2022/04/28 00:57:24;;;;;;;4.35;1.98;;;8.20;99.90;;;;;;10401673;28;20068;-89
2022/04/28 01:02:25;;;;;;;4.40;1.95;;;8.20;99.90;;;;;;10392390;28;20053;-89
2022/04/28 01:07:27;;;;;;;6.03;1.85;;;8.10;99.90;;;;;;10401830;28;20132;-89
2022/04/28 01:12:29;;;;;;;4.15;2.03;;;8.10;99.90;;;;;;10394213;28;20072;-89
2022/04/28 01:17:31;;;;;;;4.00;1.70;;;8.10;99.90;;;;;;10395392;28;20120;-89
2022/04/28 01:22:33;;;;;;;3.17;1.88;;;8.00;99.90;;;;;;10383210;28;20054;-89
2022/04/28 01:27:36;;;;;;;8.10;2.80;;;8.00;99.90;;;;;;10374646;28;20054;-89
2022/04/28 01:32:38;;;;;;;7.35;2.47;;;7.80;99.90;;;;;;10376670;28;20502;-89
2022/04/28 01:37:41;;;;;;;5.53;3.00;;;7.80;99.90;;;;;;10398322;28;20136;-89
2022/04/28 01:42:45;;;;;;;5.30;2.53;;;7.70;99.90;;;;;;10388099;28;20050;-90
2022/04/28 01:47:46;;;;;;;5.93;3.13;;;7.70;99.90;;;;;;10385702;28;20067;-89
2022/04/28 01:58:09;;;;;;;8.48;3.95;;;7.60;99.90;;;;;;10378774;28;21698;-89
2022/04/28 02:03:11;;;;;;;7.13;4.15;;;7.60;99.90;;;;;;10366770;28;20073;-88
2022/04/28 02:08:13;;;;;;;7.47;3.92;;;7.60;99.90;;;;;;10382849;28;20376;-89
2022/04/28 02:13:15;;;;;;;17.55;4.15;;;7.50;99.90;;;;;;10383099;28;20057;-89
2022/04/28 02:18:17;;;;;;;8.48;3.85;;;7.50;99.90;;;;;;10372709;28;20065;-89
2022/04/28 02:23:19;;;;;;;8.95;4.25;;;7.50;99.90;;;;;;10380633;28;20053;-89
2022/04/28 02:28:20;;;;;;;8.90;4.68;;;7.40;99.90;;;;;;10364566;28;20080;-89
2022/04/28 02:33:22;;;;;;;8.48;4.50;;;7.40;99.90;;;;;;10367433;28;20045;-88
2022/04/28 02:38:24;;;;;;;10.07;4.30;;;7.30;99.90;;;;;;10355905;28;20081;-89
2022/04/28 02:43:26;;;;;;;10.80;4.60;;;7.20;99.90;;;;;;10358345;28;20073;-89
2022/04/28 02:48:28;;;;;;;11.93;5.90;;;7.20;99.90;;;;;;10354782;28;20056;-90
2022/04/28 02:53:30;;;;;;;11.57;5.57;;;7.20;99.90;;;;;;10365260;28;20054;-90
2022/04/28 02:58:34;;;;;;;15.00;6.20;;;7.10;99.90;;;;;;10363908;28;20448;-90
2022/04/28 03:03:36;;;;;;;14.68;6.30;;;7.10;99.90;;;;;;10372281;28;20156;-90
2022/04/28 03:13:59;;;;;;;14.07;6.32;;;6.90;99.90;;;;;;10376266;28;20057;-90
2022/04/28 03:19:01;;;;;;;18.20;7.30;;;6.90;99.90;;;;;;10385849;28;20111;-88
2022/04/28 03:24:04;;;;;;;14.52;6.78;;;6.90;99.90;;;;;;10386392;28;20065;-88
2022/04/28 03:29:06;;;;;;;13.95;6.38;;;6.90;99.90;;;;;;10427565;28;20054;-88
2022/04/28 03:34:08;;;;;;;13.57;7.30;;;6.80;99.90;;;;;;10425939;28;20042;-89
2022/04/28 03:39:10;;;;;;;15.32;6.90;;;6.80;99.90;;;;;;10385993;28;20071;-90
2022/04/28 03:44:12;;;;;;;14.25;7.28;;;6.80;99.90;;;;;;10407033;28;20049;-91
2022/04/28 03:49:14;;;;;;;13.65;7.28;;;6.70;99.90;;;;;;10399717;28;20502;-91
2022/04/28 03:54:16;;;;;;;12.30;6.47;;;6.70;99.90;;;;;;10410810;28;20079;-91
2022/04/28 03:59:19;;;;;;;17.55;7.88;;;6.60;99.90;;;;;;10405821;28;20107;-90
2022/04/28 04:04:20;;;;;;;16.65;7.55;;;6.70;99.90;;;;;;10405516;28;20061;-90
2022/04/28 04:09:23;;;;;;;19.33;8.32;;;6.70;99.90;;;;;;10412716;28;20045;-88
2022/04/28 04:14:25;;;;;;;17.77;8.25;;;6.70;99.90;;;;;;10410830;28;20061;-88
2022/04/28 04:19:27;;;;;;;15.35;8.02;;;6.70;99.90;;;;;;10373934;28;20097;-90
2022/04/28 04:24:30;;;;;;;17.13;8.55;;;6.70;99.90;;;;;;10374036;28;20053;-87
2022/04/28 04:29:32;;;;;;;16.98;8.10;;;6.70;99.90;;;;;;10373294;28;20096;-88
2022/04/28 04:34:34;;;;;;;17.38;7.93;;;6.80;99.90;;;;;;10365787;28;20111;-88
2022/04/28 04:39:36;;;;;;;17.27;8.35;;;6.80;99.90;;;;;;10341446;28;20048;-87
2022/04/28 04:44:38;;;;;;;17.60;8.55;;;6.90;99.90;;;;;;10357253;28;20128;-87
2022/04/28 04:49:41;;;;;;;16.05;8.73;;;7.00;99.90;;;;;;10370343;28;20065;-87
2022/04/28 04:54:42;;;;;;;18.55;8.60;;;7.10;99.90;;;;;;10361849;28;20058;-87
2022/04/28 04:59:44;;;;;;;18.38;7.50;;;7.20;99.90;;;;;;10370320;28;20191;-87
2022/04/28 05:04:46;;;;;;;17.27;8.88;;;7.30;99.90;;;;;;10369475;28;20106;-86
2022/04/28 05:09:48;;;;;;;16.55;7.75;;;7.30;99.90;;;;;;10359520;28;20058;-88
2022/04/28 05:14:50;;;;;;;16.33;7.55;;;7.40;99.90;;;;;;10350395;28;20163;-90
2022/04/28 05:19:52;;;;;;;18.35;9.27;;;7.60;99.90;;;;;;10357738;28;20061;-89
2022/04/28 05:24:54;;;;;;;19.35;9.10;;;7.60;99.90;;;;;;10359950;28;20050;-90
2022/04/28 05:29:56;;;;;;;17.73;8.38;;;7.80;99.90;;;;;;10374556;28;20565;-89
2022/04/28 05:34:58;;;;;;;15.57;7.60;;;7.90;99.90;;;;;;10347542;28;20061;-89
2022/04/28 05:39:59;;;;;;;19.42;8.82;;;8.00;99.90;;;;;;10363258;28;20085;-89
2022/04/28 05:50:23;;;;;;;21.40;8.10;;;8.20;99.90;;;;;;10368156;28;20481;-89
2022/04/28 05:55:25;;;;;;;17.38;7.95;;;8.30;99.90;;;;;;10350904;28;20363;-89
2022/04/28 06:00:27;;;;;;;20.88;8.30;;;8.50;99.90;;;;;;10376958;28;20054;-89
2022/04/28 06:05:29;;;;;;;18.52;8.32;;;8.60;99.90;;;;;;10374183;28;20564;-92
2022/04/28 06:10:31;;;;;;;15.02;7.70;;;8.70;99.90;;;;;;10354535;28;20060;-88
2022/04/28 06:15:33;;;;;;;13.07;7.40;;;8.90;99.90;;;;;;10362119;28;20049;-87
2022/04/28 06:20:35;;;;;;;21.27;9.00;;;9.10;99.90;;;;;;10391767;28;20064;-89
2022/04/28 06:25:37;;;;;;;15.75;8.38;;;9.20;99.90;;;;;;10393351;28;20124;-90
2022/04/28 06:30:40;;;;;;;14.55;7.63;;;9.40;99.90;;;;;;10388726;28;20048;-90
2022/04/28 06:35:44;;;;;;;16.83;9.20;;;9.60;99.90;;;;;;10405644;28;20080;-90
2022/04/28 06:40:49;;;;;;;17.50;8.15;;;9.80;99.90;;;;;;10404938;28;20049;-91
2022/04/28 06:46:12;;;;;;;18.35;8.73;;;10.00;99.90;;;;;;10382815;28;20045;-90
2022/04/28 06:51:15;;;;;;;14.30;7.97;;;10.20;99.90;;;;;;10391996;28;20089;-91
2022/04/28 06:56:17;;;;;;;18.05;8.88;;;10.50;99.90;;;;;;10397785;28;20141;-90
2022/04/28 07:01:20;;;;;;;14.38;8.00;;;10.70;99.90;;;;;;10391674;28;20063;-90
2022/04/28 07:06:22;;;;;;;17.02;8.25;;;10.90;99.90;;;;;;10418749;28;20049;-91
2022/04/28 07:11:24;;;;;;;15.10;7.90;;;11.20;99.90;;;;;;10279406;28;20049;-92
2022/04/28 07:16:26;;;;;;;14.55;7.43;;;11.30;99.90;;;;;;10410023;28;20052;-91
2022/04/28 07:21:28;;;;;;;14.57;8.68;;;11.50;99.90;;;;;;10322813;28;20045;-91
2022/04/28 07:26:30;;;;;;;18.35;8.18;;;11.60;99.90;;;;;;10371311;28;20054;-91
2022/04/28 07:31:32;;;;;;;18.77;8.57;;;11.80;99.90;;;;;;10384978;28;20053;-91
2022/04/28 07:36:34;;;;;;;14.68;8.52;;;11.90;99.90;;;;;;10392500;28;20057;-91
2022/04/28 07:41:36;;;;;;;13.57;7.57;;;12.00;99.90;;;;;;10386024;28;20057;-90
2022/04/28 07:46:38;;;;;;;16.63;8.50;;;12.30;99.90;;;;;;10369481;28;20124;-90
2022/04/28 07:51:41;;;;;;;11.85;7.53;;;12.50;99.90;;;;;;10368410;28;20078;-90
2022/04/28 07:56:45;;;;;;;16.13;7.50;;;12.70;99.90;;;;;;10379531;28;20053;-90
2022/04/28 08:01:48;;;;;;;13.23;7.53;;;12.80;99.90;;;;;;10386306;28;20049;-90
2022/04/28 08:06:50;;;;;;;13.35;7.57;;;13.00;99.70;;;;;;10377215;28;20100;-90
2022/04/28 08:11:52;;;;;;;16.75;7.78;;;13.20;98.40;;;;;;10388406;28;20065;-89
2022/04/28 08:16:55;;;;;;;12.35;6.60;;;13.30;96.60;;;;;;10371138;28;20049;-90
2022/04/28 08:21:58;;;;;;;14.52;8.25;;;13.50;96.30;;;;;;10364231;28;20653;-90
2022/04/28 08:27:00;;;;;;;14.50;6.30;;;13.70;93.30;;;;;;10368859;28;20050;-90
2022/04/28 08:32:04;;;;;;;13.68;6.80;;;13.90;93.60;;;;;;10378374;28;20064;-90
2022/04/28 08:37:06;;;;;;;12.15;6.05;;;14.00;94.30;;;;;;10385282;28;20392;-90
2022/04/28 08:42:12;;;;;;;11.73;6.25;;;14.30;91.50;;;;;;10363524;28;20053;-90
2022/04/28 08:47:14;;;;;;;11.52;6.28;;;14.40;92.00;;;;;;10377031;28;20139;-90
2022/04/28 08:52:18;;;;;;;12.68;6.20;;;14.60;88.30;;;;;;10377488;28;20056;-90
2022/04/28 08:57:23;;;;;;;11.68;6.05;;;14.80;86.40;;;;;;10369331;28;20107;-90
2022/04/28 09:02:33;;;;;;;11.32;6.18;;;15.00;85.00;;;;;;10386950;28;20049;-90
2022/04/28 09:07:40;;;;;;;11.02;6.38;;;15.20;86.10;;;;;;10379114;28;20101;-90
2022/04/28 09:18:41;;;;;;;10.98;6.22;;;15.50;83.50;;;;;;10383461;28;20057;-90
2022/04/28 09:23:44;;;;;;;12.57;6.28;;;15.70;83.40;;;;;;10410530;28;20408;-91
2022/04/28 09:28:46;;;;;;;10.70;4.35;;;15.80;79.80;;;;;;10392574;28;20037;-90
2022/04/28 09:33:48;;;;;;;10.90;4.93;;;15.90;76.00;;;;;;10386009;28;20057;-90
2022/04/28 09:38:54;;;;;;;8.77;5.13;;;15.90;75.00;;;;;;10404675;28;20095;-90
2022/04/28 09:43:56;;;;;;;10.55;5.43;;;16.20;77.10;;;;;;10399307;28;20052;-90
2022/04/28 09:49:18;;;;;;;8.20;4.78;;;16.50;77.80;;;;;;10306919;28;20089;-89
2022/04/28 09:54:20;;;;;;;11.95;4.60;;;16.60;76.40;;;;;;10402944;28;20156;-91
2022/04/28 09:59:23;;;;;;;8.82;4.75;;;16.90;71.90;;;;;;10405305;28;20057;-90
2022/04/28 10:04:27;;;;;;;7.05;4.72;;;17.10;74.70;;;;;;10394585;28;20061;-91
2022/04/28 10:09:29;;;;;;;5.93;4.18;;;17.30;71.80;;;;;;10410366;28;20132;-91
2022/04/28 10:14:33;;;;;;;6.13;4.45;;;17.60;69.60;;;;;;10395730;28;20388;-91
2022/04/28 10:19:41;;;;;;;6.00;3.65;;;17.80;71.30;;;;;;10372083;28;20070;-91
2022/04/28 10:35:45;;;;;;;4.72;3.13;;;18.70;61.20;;;;;;10382454;28;20057;-91
2022/04/28 10:40:59;;;;;;;5.00;2.60;;;19.30;61.50;;;;;;10366201;28;20045;-91
2022/04/28 10:46:07;;;;;;;5.18;2.17;;;19.70;59.80;;;;;;10357406;28;20145;-91
2022/04/28 10:51:23;;;;;;;2.22;1.58;;;19.80;56.10;;;;;;10371514;28;20037;-91
2022/04/28 10:56:42;;;;;;;4.82;2.20;;;20.20;54.50;;;;;;10382158;28;20096;-91
2022/04/28 11:01:45;;;;;;;5.57;2.35;;;20.40;55.00;;;;;;10368764;28;20049;-91
2022/04/28 11:06:54;;;;;;;1.88;1.38;;;20.40;50.70;;;;;;10360619;28;20054;-92
2022/04/28 11:12:11;;;;;;;2.20;1.50;;;20.50;51.80;;;;;;10357200;28;20075;-91
2022/04/28 11:17:14;;;;;;;5.32;1.20;;;20.80;53.60;;;;;;10359747;28;20069;-91
2022/04/28 11:22:17;;;;;;;2.63;1.10;;;20.90;49.70;;;;;;10374947;28;20045;-91
2022/04/28 11:27:21;;;;;;;3.00;1.02;;;21.00;48.30;;;;;;10361227;28;20058;-90
2022/04/28 11:32:25;;;;;;;2.72;1.00;;;20.90;45.80;;;;;;10373610;28;20436;-90
2022/04/28 11:37:28;;;;;;;4.55;0.80;;;21.20;46.60;;;;;;10351762;28;20053;-91
2022/04/28 11:42:33;;;;;;;1.80;0.63;;;21.20;46.40;;;;;;10359292;28;20051;-90
2022/04/28 11:47:46;;;;;;;2.90;0.85;;;21.70;47.20;;;;;;10344892;28;20788;-90
2022/04/28 11:53:18;;;;;;;3.38;1.13;;;21.70;46.20;;;;;;10376531;28;20145;-91
2022/04/28 11:58:21;;;;;;;2.67;0.95;;;21.80;45.20;;;;;;10369453;28;20057;-91
2022/04/28 12:03:24;;;;;;;2.88;0.80;;;22.20;45.30;;;;;;10378252;28;20053;-91
2022/04/28 12:08:26;;;;;;;2.13;0.82;;;22.00;43.40;;;;;;10380871;28;20054;-91
2022/04/28 12:19:20;;;;;;;1.60;0.88;;;22.70;45.90;;;;;;10376356;28;20459;-92
2022/04/28 12:24:26;;;;;;;2.75;1.77;;;22.80;45.50;;;;;;10374919;28;20044;-90
2022/04/28 12:29:27;;;;;;;2.23;1.07;;;22.40;44.90;;;;;;10398230;28;20144;-90
2022/04/28 12:34:29;;;;;;;3.72;1.00;;;22.20;43.10;;;;;;10420290;28;20500;-90
2022/04/28 12:39:34;;;;;;;1.42;0.85;;;22.40;45.50;;;;;;10422320;28;20052;-91
2022/04/28 12:44:47;;;;;;;1.30;0.80;;;22.50;43.30;;;;;;10393701;28;20082;-91
2022/04/28 12:49:50;;;;;;;1.05;0.70;;;22.60;42.00;;;;;;10410157;28;20055;-91
2022/04/28 12:55:01;;;;;;;1.70;0.80;;;22.90;43.60;;;;;;10391907;28;20052;-91
2022/04/28 13:00:10;;;;;;;1.77;0.73;;;23.10;41.60;;;;;;10407491;28;20053;-91
2022/04/28 13:05:14;;;;;;;1.88;0.85;;;22.50;40.30;;;;;;10402133;28;20053;-89
2022/04/28 13:10:36;;;;;;;1.40;0.68;;;23.00;43.00;;;;;;10400847;28;20045;-89
2022/04/28 13:15:38;;;;;;;2.53;0.70;;;23.40;42.70;;;;;;10399629;28;20055;-91
2022/04/28 13:20:40;;;;;;;1.08;0.65;;;23.30;41.00;;;;;;10390491;28;20099;-91
2022/04/28 13:25:42;;;;;;;2.13;1.10;;;23.20;39.60;;;;;;10350039;28;20848;-90
2022/04/28 13:30:44;;;;;;;2.03;1.00;;;23.20;38.40;;;;;;10347138;28;20049;-91
2022/04/28 13:35:50;;;;;;;1.33;0.70;;;23.50;40.10;;;;;;10314395;28;20054;-91
2022/04/28 13:41:05;;;;;;;;;;;23.60;36.00;;;;;;10225981;28;20053;-89
2022/04/28 13:52:50;;;;;;;1.13;0.60;;;24.20;36.80;;;;;;10104743;28;20522;-90
2022/04/28 13:58:46;;;;;;;2.05;0.55;;;24.30;37.50;;;;;;9672373;28;20139;-91
2022/04/28 14:04:28;;;;;;;1.85;0.63;;;24.70;38.90;;;;;;9968802;29;20609;-92
2022/04/28 14:10:10;;;;;;;1.13;0.50;;;24.60;37.60;;;;;;9949863;29;20057;-91
2022/04/28 14:15:55;;;;;;;1.55;0.60;;;24.80;37.10;;;;;;9826608;29;20088;-90
2022/04/28 14:21:27;;;;;;;1.35;0.50;;;24.50;35.90;;;;;;9828032;29;20085;-89
2022/04/28 14:26:29;;;;;;;1.13;0.40;;;25.40;36.90;;;;;;10145859;29;20048;-89
2022/04/28 14:31:32;;;;;;;3.30;0.45;;;25.90;42.10;;;;;;10166083;28;20059;-90
2022/04/28 14:36:54;;;;;;;1.58;0.50;;;26.00;35.20;;;;;;10063808;29;20048;-90
2022/04/28 14:41:56;;;;;;;1.55;0.50;;;26.10;34.70;;;;;;10197594;29;20089;-90
2022/04/28 14:47:20;;;;;;;1.33;0.50;;;25.80;34.40;;;;;;10102382;28;20072;-89
2022/04/28 14:52:23;;;;;;;1.38;0.50;;;26.10;35.20;;;;;;10298440;28;20057;-93
2022/04/28 14:57:35;;;;;;;2.30;0.40;;;25.50;34.30;;;;;;10285145;28;20042;-89
2022/04/28 15:02:37;;;;;;;1.58;0.50;;;26.00;35.40;;;;;;10354546;28;20145;-91
2022/04/28 15:07:39;;;;;;;1.10;0.40;;;24.70;33.40;;;;;;10342297;28;20061;-88
2022/04/28 15:12:43;;;;;;;0.93;0.60;;;25.60;35.80;;;;;;10349161;28;20065;-89
2022/04/28 15:17:51;;;;;;;4.15;0.50;;;25.70;35.90;;;;;;10274165;28;20061;-89
2022/04/28 15:23:01;;;;;;;4.28;0.82;;;25.40;36.00;;;;;;10213898;28;20444;-90
2022/04/28 15:28:08;;;;;;;1.65;0.40;;;25.40;35.80;;;;;;10342855;28;20056;-88
2022/04/28 15:33:10;;;;;;;1.38;0.30;;;25.40;35.30;;;;;;10371531;28;20408;-88
2022/04/28 15:38:11;;;;;;;0.70;0.38;;;25.40;34.20;;;;;;10376527;28;20053;-89
2022/04/28 15:43:13;;;;;;;1.90;0.50;;;25.40;34.70;;;;;;10359605;28;20125;-88
2022/04/28 15:48:15;;;;;;;0.50;0.30;;;25.20;35.10;;;;;;10365076;28;20508;-87
2022/04/28 15:53:17;;;;;;;3.35;0.40;;;24.80;34.40;;;;;;10372595;28;20049;-87
2022/04/28 15:58:19;;;;;;;0.93;0.45;;;24.60;36.30;;;;;;10380186;28;20345;-88
2022/04/28 16:03:21;;;;;;;1.10;0.52;;;24.70;36.90;;;;;;10367605;28;20056;-88
2022/04/28 16:08:24;;;;;;;0.57;0.40;;;24.60;34.60;;;;;;10367739;28;20503;-88
2022/04/28 16:13:26;;;;;;;3.03;0.50;;;24.50;37.10;;;;;;10354767;28;20164;-89
2022/04/28 16:18:28;;;;;;;0.70;0.45;;;24.70;38.50;;;;;;10353979;28;20088;-89
2022/04/28 16:23:44;;;;;;;0.73;0.57;;;24.60;36.70;;;;;;10138868;28;20051;-92
2022/04/28 16:28:48;;;;;;;2.13;0.70;;;24.60;36.70;;;;;;10366984;28;20058;-88
2022/04/28 16:33:50;;;;;;;1.85;0.65;;;24.50;37.00;;;;;;10361115;28;20400;-86
2022/04/28 16:38:51;;;;;;;2.90;0.68;;;24.40;37.00;;;;;;10357747;28;20128;-89
2022/04/28 16:43:55;;;;;;;0.98;0.60;;;24.30;36.70;;;;;;10374959;28;20053;-88
2022/04/28 16:48:57;;;;;;;0.75;0.45;;;24.20;37.30;;;;;;10360198;28;20124;-89
2022/04/28 16:54:18;;;;;;;2.13;0.60;;;24.00;39.90;;;;;;10364822;28;20065;-90
2022/04/28 16:59:29;;;;;;;0.95;0.60;;;23.80;39.50;;;;;;10367035;28;20120;-89
2022/04/28 17:04:32;;;;;;;1.60;0.50;;;24.00;39.40;;;;;;10373354;28;20416;-90
2022/04/28 17:09:38;;;;;;;1.38;0.75;;;23.80;39.00;;;;;;10359044;28;20056;-90
2022/04/28 17:14:40;;;;;;;6.80;0.60;;;23.70;39.60;;;;;;10367848;28;20136;-90
2022/04/28 17:19:43;;;;;;;2.20;0.50;;;23.40;39.70;;;;;;10395098;28;20139;-89
2022/04/28 17:24:45;;;;;;;1.20;0.50;;;23.20;40.00;;;;;;10386042;28;20108;-90
2022/04/28 17:29:47;;;;;;;2.80;0.60;;;23.00;41.00;;;;;;10377462;28;20045;-88
2022/04/28 17:34:48;;;;;;;1.45;0.65;;;22.80;41.20;;;;;;10390110;28;20053;-89
2022/04/28 17:39:50;;;;;;;4.18;0.57;;;22.60;43.00;;;;;;10421135;28;20456;-89
2022/04/28 17:44:52;;;;;;;1.73;0.63;;;22.40;41.80;;;;;;10394943;28;20145;-90
2022/04/28 17:49:55;;;;;;;1.70;0.70;;;22.10;42.60;;;;;;10402888;28;20057;-89
2022/04/28 18:00:17;;;;;;;1.85;0.90;;;21.30;44.40;;;;;;10424401;28;20049;-88
2022/04/28 18:05:19;;;;;;;3.05;0.90;;;21.00;45.90;;;;;;10402346;28;20131;-89
2022/04/28 18:10:21;;;;;;;5.10;1.00;;;20.60;48.40;;;;;;10418113;28;20044;-89
2022/04/28 18:15:23;;;;;;;2.03;0.82;;;20.20;48.60;;;;;;10409343;28;20075;-89
2022/04/28 18:20:25;;;;;;;1.92;0.75;;;19.80;48.00;;;;;;10416531;28;20064;-89
2022/04/28 18:25:27;;;;;;;1.77;0.80;;;19.40;49.40;;;;;;10386237;28;20045;-89
2022/04/28 18:30:30;;;;;;;1.58;1.02;;;19.20;52.60;;;;;;10368615;28;20216;-89
2022/04/28 18:46:14;;;;;;;5.43;1.55;;;18.30;60.60;;;;;;10368056;28;20068;-90
2022/04/28 18:51:16;;;;;;;2.72;1.20;;;17.90;60.50;;;;;;10366957;28;20051;-90
2022/04/28 18:56:18;;;;;;;2.15;1.50;;;17.70;62.50;;;;;;10389244;28;20126;-89
2022/04/28 19:01:20;;;;;;;3.55;1.75;;;17.40;63.70;;;;;;10353028;28;20049;-91
2022/04/28 19:06:23;;;;;;;2.13;0.90;;;17.10;67.20;;;;;;10356482;28;20054;-89
2022/04/28 19:11:25;;;;;;;7.22;0.93;;;16.70;64.50;;;;;;10327758;28;20045;-91
2022/04/28 19:16:30;;;;;;;3.08;1.20;;;16.50;65.30;;;;;;10369410;28;20081;-91
2022/04/28 19:21:33;;;;;;;2.50;0.90;;;16.20;68.60;;;;;;10395260;28;20132;-91
2022/04/28 19:26:35;;;;;;;4.15;1.20;;;16.00;69.50;;;;;;10388998;28;20065;-92
2022/04/28 19:31:40;;;;;;;7.18;1.35;;;15.80;70.80;;;;;;10395151;28;20049;-91
2022/04/28 19:36:45;;;;;;;5.32;2.05;;;15.60;72.30;;;;;;10406521;28;20115;-91
2022/04/28 19:41:49;;;;;;;5.63;2.17;;;15.40;73.40;;;;;;10410748;28;20136;-93
2022/04/28 19:46:51;;;;;;;4.38;1.98;;;15.10;73.90;;;;;;10408885;28;20057;-91
2022/04/28 19:51:54;;;;;;;2.38;1.50;;;15.00;74.70;;;;;;10391347;28;20045;-91
2022/04/28 19:56:57;;;;;;;4.30;1.58;;;14.80;76.30;;;;;;10386540;28;20054;-91
2022/04/28 20:02:01;;;;;;;3.72;1.52;;;14.60;77.30;;;;;;10403178;28;20182;-90
2022/04/28 20:07:05;;;;;;;6.72;1.80;;;14.40;78.50;;;;;;10390954;28;20068;-90
2022/04/28 20:12:07;;;;;;;8.30;2.83;;;14.30;79.60;;;;;;10400328;28;20132;-90
2022/04/28 20:17:09;;;;;;;6.38;1.70;;;14.20;85.00;;;;;;10410611;28;20184;-90
2022/04/28 20:22:11;;;;;;;4.25;1.98;;;14.00;81.20;;;;;;10384913;28;20064;-90
2022/04/28 20:27:13;;;;;;;5.15;2.47;;;13.80;83.00;;;;;;10370998;28;20121;-90
2022/04/28 20:32:16;;;;;;;6.47;2.10;;;13.50;85.40;;;;;;10369863;28;20968;-90
2022/04/28 20:37:20;;;;;;;4.15;2.25;;;13.30;86.50;;;;;;10399622;28;20057;-90
2022/04/28 20:42:21;;;;;;;3.08;1.63;;;13.30;89.50;;;;;;10367577;28;20038;-90
2022/04/28 20:47:23;;;;;;;2.70;1.52;;;13.20;85.60;;;;;;10357758;28;20053;-90
2022/04/28 20:52:26;;;;;;;2.20;1.50;;;13.10;87.00;;;;;;10389230;28;20064;-91
2022/04/28 20:57:28;;;;;;;3.05;2.00;;;13.00;85.30;;;;;;10385513;28;20129;-90
2022/04/28 21:02:30;;;;;;;4.30;1.80;;;12.90;86.00;;;;;;10358871;28;20049;-90
2022/04/28 21:07:34;;;;;;;2.92;2.08;;;12.80;87.80;;;;;;10393560;28;20045;-90
2022/04/28 21:12:36;;;;;;;4.82;3.25;;;12.80;90.00;;;;;;10391226;28;20045;-90
2022/04/28 21:17:42;;;;;;;8.27;3.08;;;12.70;90.80;;;;;;10392847;28;20059;-91
2022/04/28 21:22:46;;;;;;;7.70;2.53;;;12.70;91.60;;;;;;10381708;28;20508;-91
2022/04/28 21:28:03;;;;;;;4.72;3.00;;;12.60;93.60;;;;;;10340359;28;20050;-91
2022/04/28 21:33:06;;;;;;;9.00;3.03;;;12.60;94.90;;;;;;10364173;28;20053;-91
2022/04/28 21:38:08;;;;;;;6.72;3.83;;;12.50;94.00;;;;;;10374514;28;20528;-90
2022/04/28 21:43:10;;;;;;;8.07;3.55;;;12.50;93.80;;;;;;10381797;28;20052;-91
2022/04/28 21:48:12;;;;;;;7.22;4.03;;;12.50;93.10;;;;;;10371426;28;20744;-91
2022/04/28 21:53:34;;;;;;;7.78;3.75;;;12.50;94.30;;;;;;10362949;28;20436;-90
2022/04/28 21:58:36;;;;;;;7.78;3.80;;;12.50;93.30;;;;;;10379366;28;20049;-90
2022/04/28 22:14:22;;;;;;;8.68;4.75;;;12.50;92.80;;;;;;10387425;28;20118;-90
2022/04/28 22:19:33;;;;;;;9.27;4.72;;;12.40;92.70;;;;;;10389201;28;20144;-91
2022/04/28 22:24:37;;;;;;;8.73;3.95;;;12.40;93.20;;;;;;10350216;28;20424;-90
2022/04/28 22:30:08;;;;;;;12.40;3.58;;;12.40;93.80;;;;;;10355759;28;20074;-90
2022/04/28 22:35:22;;;;;;;8.00;3.33;;;12.30;93.80;;;;;;10395632;28;20144;-90
2022/04/28 22:40:31;;;;;;;8.97;3.10;;;12.20;94.40;;;;;;10364525;28;20069;-90
2022/04/28 22:45:33;;;;;;;9.95;3.75;;;12.20;93.90;;;;;;10365072;28;20052;-90
2022/04/28 22:50:35;;;;;;;9.15;3.95;;;12.10;93.60;;;;;;10337453;28;20420;-91
2022/04/28 22:55:56;;;;;;;7.88;3.33;;;12.00;93.50;;;;;;10379666;28;20132;-90
2022/04/28 23:00:59;;;;;;;5.13;3.08;;;12.00;93.40;;;;;;10359000;28;20069;-91
2022/04/28 23:06:02;;;;;;;9.85;3.50;;;11.80;93.90;;;;;;10389449;28;20145;-91
2022/04/28 23:11:04;;;;;;;6.82;3.40;;;11.70;94.30;;;;;;10373539;28;20094;-91
2022/04/28 23:16:06;;;;;;;13.90;3.70;;;11.60;96.30;;;;;;10330787;28;20738;-91
2022/04/28 23:21:09;;;;;;;7.60;3.35;;;11.50;98.00;;;;;;10373062;28;20065;-92
2022/04/28 23:26:12;;;;;;;7.45;3.70;;;11.50;97.30;;;;;;10347089;28;20053;-91
2022/04/28 23:31:14;;;;;;;5.68;3.10;;;11.40;97.30;;;;;;10345517;28;20041;-91
2022/04/28 23:46:58;;;;;;;8.07;3.20;;;11.20;97.50;;;;;;10372010;28;20547;-92
2022/04/28 23:52:00;;;;;;;7.32;3.45;;;11.10;98.90;;;;;;10371556;28;20432;-92
2022/04/28 23:57:05;;;;;;;7.55;4.00;;;11.10;98.10;;;;;;10360014;28;20698;-92
